Time;durP1;ratioP1;P1;durP2;ratioP2;P2;SDS_P1;SDS_P2;PMS_P1;PMS_P2;Temp;Humidity;BMP_temperature;BMP_pressure;BME280_temperature;BME280_humidity;BME280_pressure;Samples;Min_cycle;Max_cycle;Signal;HPM_P1;HPM_P2
2023/10/29 00:00:12;;;;;;;8.95;4.15;;;11.40;99.90;;;;;;5052644;28;20044;-49
2023/10/29 00:02:38;;;;;;;9.30;3.53;;;11.40;99.90;;;;;;5051591;28;20132;-46
2023/10/29 00:05:04;;;;;;;6.90;3.25;;;11.30;99.90;;;;;;5052870;28;20051;-45
2023/10/29 00:07:30;;;;;;;3.55;2.95;;;11.30;99.90;;;;;;5052853;28;20044;-45
2023/10/29 00:09:56;;;;;;;5.50;3.65;;;11.40;99.90;;;;;;5052601;28;20057;-47
2023/10/29 00:12:21;;;;;;;8.95;4.57;;;11.50;99.90;;;;;;5052541;28;20064;-46
2023/10/29 00:14:47;;;;;;;6.43;4.03;;;11.50;99.90;;;;;;5052905;28;20029;-47
2023/10/29 00:17:13;;;;;;;8.80;4.05;;;11.40;99.90;;;;;;5052482;28;20033;-49
2023/10/29 00:19:39;;;;;;;6.47;3.83;;;11.40;99.90;;;;;;5052903;28;20029;-45
2023/10/29 00:22:05;;;;;;;6.38;3.65;;;11.40;99.90;;;;;;5052409;28;20033;-47
2023/10/29 00:24:30;;;;;;;5.65;3.92;;;11.50;99.90;;;;;;5052398;28;20494;-46
2023/10/29 00:26:56;;;;;;;5.85;4.07;;;11.40;99.90;;;;;;5052415;28;20064;-47
2023/10/29 00:29:22;;;;;;;6.97;4.75;;;11.40;99.90;;;;;;5052353;28;20099;-46
2023/10/29 00:31:48;;;;;;;9.05;4.57;;;11.50;99.90;;;;;;5052043;28;20029;-47
2023/10/29 00:34:13;;;;;;;9.30;4.10;;;11.40;99.90;;;;;;5052107;28;20052;-48
2023/10/29 00:36:39;;;;;;;7.07;4.32;;;11.60;99.90;;;;;;5051954;28;20025;-45
2023/10/29 00:39:05;;;;;;;8.65;4.25;;;11.50;99.90;;;;;;5052276;28;20090;-47
2023/10/29 00:41:31;;;;;;;5.25;4.65;;;11.50;99.90;;;;;;5052075;28;20044;-50
2023/10/29 00:43:57;;;;;;;7.10;4.50;;;11.40;99.90;;;;;;5062384;28;20394;-51
2023/10/29 00:46:23;;;;;;;5.28;4.05;;;11.60;99.90;;;;;;5071641;28;20041;-50
2023/10/29 00:48:50;;;;;;;5.53;4.45;;;11.50;99.90;;;;;;5071439;28;20049;-46
2023/10/29 00:51:17;;;;;;;5.82;4.00;;;11.50;99.90;;;;;;5072056;28;20105;-50
2023/10/29 00:53:44;;;;;;;8.73;3.72;;;11.60;99.90;;;;;;5072185;28;20047;-46
2023/10/29 00:56:11;;;;;;;6.13;3.97;;;11.50;99.90;;;;;;5071884;28;20055;-46
2023/10/29 00:58:37;;;;;;;5.53;3.97;;;11.70;99.90;;;;;;5071805;28;20040;-47
2023/10/29 01:01:03;;;;;;;6.15;4.10;;;11.70;99.90;;;;;;5071981;28;20048;-47
2023/10/29 01:03:29;;;;;;;5.47;3.97;;;11.70;99.90;;;;;;5071679;28;20123;-47
2023/10/29 01:05:56;;;;;;;4.25;3.35;;;11.60;99.90;;;;;;5071775;28;20047;-47
2023/10/29 01:08:22;;;;;;;3.83;3.28;;;11.70;99.90;;;;;;5071503;28;20044;-49
2023/10/29 01:10:47;;;;;;;5.45;3.58;;;11.70;99.90;;;;;;5071420;28;20049;-49
2023/10/29 01:13:13;;;;;;;6.15;3.50;;;11.70;99.90;;;;;;5064137;28;20051;-47
2023/10/29 01:15:39;;;;;;;5.28;3.63;;;11.50;99.90;;;;;;5049913;28;20048;-47
2023/10/29 01:18:06;;;;;;;4.18;3.40;;;11.60;99.90;;;;;;5051309;28;20043;-48
2023/10/29 01:20:32;;;;;;;3.97;3.20;;;11.60;99.90;;;;;;5051362;28;20495;-47
2023/10/29 01:22:58;;;;;;;3.72;2.97;;;11.70;99.90;;;;;;5051415;28;20036;-46
2023/10/29 01:25:23;;;;;;;5.38;2.75;;;11.70;99.90;;;;;;5051426;28;20036;-47
2023/10/29 01:27:49;;;;;;;4.65;3.17;;;11.60;99.90;;;;;;5051347;28;20040;-44
2023/10/29 01:30:15;;;;;;;6.13;3.55;;;11.70;99.90;;;;;;5051238;28;20048;-48
2023/10/29 01:32:41;;;;;;;7.00;3.42;;;11.90;99.90;;;;;;5051351;28;20044;-50
2023/10/29 01:35:07;;;;;;;4.70;3.30;;;11.70;99.90;;;;;;5051480;28;20048;-45
2023/10/29 01:37:33;;;;;;;5.22;3.85;;;11.90;99.90;;;;;;5051531;28;20036;-50
2023/10/29 01:39:58;;;;;;;4.38;2.80;;;11.90;99.90;;;;;;5051207;28;20033;-49
2023/10/29 01:42:26;;;;;;;4.70;3.38;;;11.90;99.90;;;;;;5051417;28;20083;-49
2023/10/29 01:44:52;;;;;;;7.68;3.85;;;12.00;99.90;;;;;;5051080;28;20047;-47
2023/10/29 01:47:17;;;;;;;6.70;3.60;;;12.00;99.90;;;;;;5050321;28;20029;-46
2023/10/29 01:49:43;;;;;;;4.03;3.67;;;12.00;99.90;;;;;;5051072;28;20132;-46
2023/10/29 01:52:09;;;;;;;6.20;4.00;;;12.10;99.90;;;;;;5050376;28;20096;-49
2023/10/29 01:54:35;;;;;;;5.03;4.10;;;12.00;99.90;;;;;;5051272;28;20386;-50
2023/10/29 01:57:00;;;;;;;5.82;4.00;;;12.00;99.90;;;;;;5051059;28;20051;-47
2023/10/29 01:59:29;;;;;;;5.07;4.05;;;12.20;99.90;;;;;;5053440;28;20121;-45
2023/10/29 02:01:55;;;;;;;;;;;12.30;99.90;;;;;;5055751;28;20048;-46
2023/10/29 02:04:26;;;;;;;5.07;4.35;;;12.10;99.90;;;;;;5055108;28;19927;-47
2023/10/29 02:06:55;;;;;;;7.95;3.83;;;12.30;99.90;;;;;;5055339;28;20053;-49
2023/10/29 02:09:21;;;;;;;;;;;12.30;99.90;;;;;;5054176;28;20056;-46
2023/10/29 02:11:47;;;;;;;6.65;3.83;;;12.20;99.90;;;;;;5054936;28;19921;-46
2023/10/29 02:14:12;;;;;;;4.15;3.13;;;12.30;99.90;;;;;;5054947;28;20033;-46
2023/10/29 02:16:38;;;;;;;6.60;3.78;;;12.30;99.90;;;;;;5055144;28;20083;-45
2023/10/29 02:19:04;;;;;;;5.82;3.78;;;12.30;99.90;;;;;;5054915;28;20557;-47
2023/10/29 02:21:30;;;;;;;6.00;3.63;;;12.50;99.90;;;;;;5054712;28;20049;-46
2023/10/29 02:23:56;;;;;;;4.30;3.42;;;12.40;99.90;;;;;;5054670;28;20082;-48
2023/10/29 02:26:22;;;;;;;6.50;3.38;;;12.40;99.90;;;;;;5054510;28;20032;-46
2023/10/29 02:28:48;;;;;;;8.57;3.60;;;12.60;99.90;;;;;;5054510;28;20174;-46
2023/10/29 02:31:18;;;;;;;6.05;3.08;;;12.70;99.90;;;;;;5054572;28;20534;-47
2023/10/29 02:33:43;;;;;;;5.65;2.97;;;12.70;99.90;;;;;;5054640;28;20032;-47
2023/10/29 02:36:10;;;;;;;6.25;3.47;;;12.70;99.90;;;;;;5054404;28;20487;-46
2023/10/29 02:38:37;;;;;;;4.00;2.88;;;12.70;99.90;;;;;;5065498;28;20044;-49
2023/10/29 02:41:06;;;;;;;5.25;2.45;;;12.60;99.90;;;;;;5074168;28;20044;-47
2023/10/29 02:43:39;;;;;;;7.50;3.00;;;12.80;99.90;;;;;;5074211;28;20037;-46
2023/10/29 02:46:04;;;;;;;7.00;3.08;;;12.70;99.90;;;;;;5074304;28;20052;-50
2023/10/29 02:48:30;;;;;;;3.70;2.80;;;12.60;99.90;;;;;;5074399;28;20137;-47
2023/10/29 02:50:56;;;;;;;6.75;2.92;;;12.70;99.90;;;;;;5074350;28;20052;-48
2023/10/29 02:53:22;;;;;;;4.80;2.70;;;12.70;99.90;;;;;;5074112;28;20040;-46
2023/10/29 02:55:48;;;;;;;5.32;2.65;;;12.70;99.90;;;;;;5074114;28;20037;-46
2023/10/29 02:58:14;;;;;;;4.47;2.45;;;12.70;99.90;;;;;;5074253;28;20036;-47
2023/10/29 03:00:40;;;;;;;6.50;2.38;;;12.80;99.90;;;;;;5074096;28;20047;-49
2023/10/29 03:03:06;;;;;;;6.45;2.50;;;12.80;99.90;;;;;;5073949;28;20072;-46
2023/10/29 03:05:32;;;;;;;3.72;2.05;;;12.80;99.90;;;;;;5073996;28;20451;-46
2023/10/29 03:07:59;;;;;;;3.42;2.10;;;12.70;99.90;;;;;;5073759;28;20102;-46
2023/10/29 03:10:26;;;;;;;3.95;2.28;;;12.80;99.90;;;;;;5072697;28;20088;-46
2023/10/29 03:12:52;;;;;;;6.30;3.00;;;12.70;99.90;;;;;;5073737;28;20044;-50
2023/10/29 03:15:18;;;;;;;4.88;2.03;;;12.80;99.90;;;;;;5045805;28;20033;-46
2023/10/29 03:17:43;;;;;;;4.93;2.03;;;12.80;99.90;;;;;;5073844;28;20036;-46
2023/10/29 03:20:11;;;;;;;3.63;1.80;;;12.70;99.90;;;;;;5073423;28;20051;-44
2023/10/29 03:22:37;;;;;;;4.07;2.08;;;12.80;99.90;;;;;;5071020;28;20040;-46
2023/10/29 03:25:03;;;;;;;5.03;1.90;;;12.70;99.90;;;;;;5052358;28;20037;-48
2023/10/29 03:27:28;;;;;;;4.97;2.30;;;12.80;99.90;;;;;;5053648;28;20056;-46
2023/10/29 03:29:54;;;;;;;8.65;2.00;;;12.80;99.90;;;;;;5053475;28;20086;-47
2023/10/29 03:32:20;;;;;;;3.20;1.70;;;12.80;99.90;;;;;;5053622;28;20044;-48
2023/10/29 03:34:45;;;;;;;5.45;1.73;;;12.80;99.90;;;;;;5053333;28;20453;-51
2023/10/29 03:37:11;;;;;;;3.60;1.63;;;12.90;99.90;;;;;;5053263;28;20418;-50
2023/10/29 03:39:37;;;;;;;7.65;2.03;;;12.90;99.90;;;;;;5053332;28;20048;-46
2023/10/29 03:42:02;;;;;;;3.88;1.48;;;12.80;99.90;;;;;;5053770;28;20554;-46
2023/10/29 03:44:28;;;;;;;3.72;1.75;;;12.90;99.90;;;;;;5053342;28;20033;-47
2023/10/29 03:46:54;;;;;;;6.55;1.92;;;12.90;99.90;;;;;;5053255;28;20502;-47
2023/10/29 03:49:20;;;;;;;5.43;1.50;;;12.90;99.90;;;;;;5053160;28;20041;-49
2023/10/29 03:51:47;;;;;;;4.07;1.58;;;12.90;99.90;;;;;;5053221;28;20098;-47
2023/10/29 03:54:13;;;;;;;5.60;1.65;;;12.80;99.90;;;;;;5053015;28;20037;-46
2023/10/29 03:56:39;;;;;;;2.30;1.58;;;12.80;99.90;;;;;;5051586;28;20045;-47
2023/10/29 03:59:05;;;;;;;3.25;1.30;;;12.90;99.90;;;;;;5052919;28;20041;-45
2023/10/29 04:01:31;;;;;;;3.50;1.52;;;12.90;99.90;;;;;;5052588;28;20068;-48
2023/10/29 04:03:57;;;;;;;4.38;1.30;;;12.90;99.90;;;;;;5052846;28;20068;-47
2023/10/29 04:06:22;;;;;;;3.50;1.55;;;12.90;99.90;;;;;;5052789;28;20553;-46
2023/10/29 04:08:48;;;;;;;4.03;1.55;;;12.90;99.90;;;;;;5052760;28;20087;-46
2023/10/29 04:11:14;;;;;;;4.65;1.48;;;13.00;99.90;;;;;;5052445;28;20053;-46
2023/10/29 04:13:40;;;;;;;5.07;1.00;;;13.10;99.90;;;;;;5052488;28;20087;-47
2023/10/29 04:16:06;;;;;;;1.90;1.30;;;13.10;99.90;;;;;;5052485;28;20036;-46
2023/10/29 04:18:33;;;;;;;3.45;1.30;;;13.10;99.90;;;;;;5052462;28;20048;-46
2023/10/29 04:21:07;;;;;;;4.00;1.40;;;13.10;99.90;;;;;;5052382;28;20041;-45
2023/10/29 04:23:34;;;;;;;4.18;1.17;;;13.20;99.90;;;;;;5051323;28;20048;-50
2023/10/29 04:26:00;;;;;;;5.00;1.15;;;13.10;99.90;;;;;;5052367;28;20162;-47
2023/10/29 04:28:25;;;;;;;5.65;1.13;;;13.30;99.90;;;;;;5052458;28;20137;-46
2023/10/29 04:30:53;;;;;;;4.78;1.55;;;13.30;99.90;;;;;;5052218;28;20041;-47
2023/10/29 04:33:19;;;;;;;6.40;1.33;;;13.40;99.90;;;;;;5068801;28;20044;-49
2023/10/29 04:35:45;;;;;;;3.33;1.05;;;13.30;99.90;;;;;;5071901;28;20040;-47
2023/10/29 04:38:10;;;;;;;3.25;1.10;;;13.30;99.90;;;;;;5072085;28;20037;-49
2023/10/29 04:40:36;;;;;;;3.42;1.08;;;13.30;99.90;;;;;;5072242;28;20102;-47
2023/10/29 04:43:02;;;;;;;1.88;0.70;;;13.40;99.90;;;;;;5072172;28;20115;-47
2023/10/29 04:45:28;;;;;;;1.80;0.52;;;13.30;99.90;;;;;;5071819;28;20044;-46
2023/10/29 04:47:53;;;;;;;1.83;0.50;;;13.20;99.90;;;;;;5072084;28;20058;-49
2023/10/29 04:50:19;;;;;;;2.97;0.68;;;13.20;99.90;;;;;;5071732;28;20044;-48
2023/10/29 04:52:45;;;;;;;0.70;0.40;;;13.10;99.90;;;;;;5072207;28;20470;-48
2023/10/29 04:55:10;;;;;;;2.22;0.52;;;13.00;99.90;;;;;;5071951;28;20044;-45
2023/10/29 04:57:36;;;;;;;3.15;0.50;;;12.90;99.90;;;;;;5071802;28;20037;-46
2023/10/29 05:00:04;;;;;;;1.00;0.60;;;12.90;99.90;;;;;;5071907;28;20079;-48
2023/10/29 05:02:30;;;;;;;0.98;0.50;;;12.90;99.90;;;;;;5071733;28;20036;-48
2023/10/29 05:04:56;;;;;;;1.20;0.55;;;12.80;99.90;;;;;;5071657;28;20049;-47
2023/10/29 05:07:22;;;;;;;1.33;0.60;;;12.80;99.90;;;;;;5071746;28;20044;-47
2023/10/29 05:09:47;;;;;;;2.53;0.75;;;12.80;99.90;;;;;;5071466;28;20036;-46
2023/10/29 05:12:14;;;;;;;0.93;0.52;;;12.80;99.90;;;;;;5070507;28;20078;-46
2023/10/29 05:14:40;;;;;;;1.63;0.50;;;12.70;99.90;;;;;;5071707;28;20037;-46
2023/10/29 05:17:06;;;;;;;6.53;0.85;;;12.80;99.90;;;;;;5061150;28;20033;-48
2023/10/29 05:19:32;;;;;;;1.63;0.80;;;12.80;99.90;;;;;;5071231;28;20102;-51
2023/10/29 05:21:58;;;;;;;2.75;0.85;;;12.70;99.90;;;;;;5071753;28;20040;-47
2023/10/29 05:24:23;;;;;;;1.88;0.80;;;12.70;99.90;;;;;;5054311;28;20036;-51
2023/10/29 05:26:49;;;;;;;0.30;0.30;;;12.60;99.90;;;;;;5051465;28;20041;-49
2023/10/29 05:29:16;;;;;;;2.42;0.55;;;12.50;99.90;;;;;;5050123;28;20245;-50
2023/10/29 05:31:42;;;;;;;1.52;0.60;;;12.50;99.90;;;;;;5051386;28;20044;-48
2023/10/29 05:34:07;;;;;;;3.20;0.95;;;12.50;99.90;;;;;;5050849;28;20084;-47
2023/10/29 05:36:33;;;;;;;3.95;0.75;;;12.40;99.90;;;;;;5051516;28;20037;-49
2023/10/29 05:38:59;;;;;;;3.15;0.60;;;12.50;99.90;;;;;;5051413;28;20565;-46
2023/10/29 05:41:25;;;;;;;2.38;0.60;;;12.40;99.90;;;;;;5051439;28;20037;-47
2023/10/29 05:43:51;;;;;;;1.38;0.80;;;12.40;99.90;;;;;;5051714;28;20052;-49
2023/10/29 05:46:16;;;;;;;3.50;0.68;;;12.40;99.90;;;;;;5051220;28;20095;-47
2023/10/29 05:48:42;;;;;;;3.08;0.80;;;12.40;99.90;;;;;;5051239;28;20095;-47
2023/10/29 05:51:12;;;;;;;4.35;0.77;;;12.40;99.90;;;;;;5051229;28;20037;-47
2023/10/29 05:53:39;;;;;;;3.60;0.77;;;12.40;99.90;;;;;;5051435;28;20056;-47
2023/10/29 05:56:05;;;;;;;2.47;0.80;;;12.40;99.90;;;;;;5051214;28;20475;-45
2023/10/29 05:58:31;;;;;;;1.05;0.50;;;12.40;99.90;;;;;;5051037;28;20480;-47
2023/10/29 06:00:57;;;;;;;2.25;0.70;;;12.40;99.90;;;;;;5051264;28;20048;-45
2023/10/29 06:03:23;;;;;;;1.85;0.65;;;12.40;99.90;;;;;;5050888;28;20045;-46
2023/10/29 06:05:51;;;;;;;2.20;0.80;;;12.40;99.90;;;;;;5051343;28;20063;-45
2023/10/29 06:08:17;;;;;;;1.75;0.70;;;12.50;99.90;;;;;;5050851;28;20487;-47
2023/10/29 06:10:43;;;;;;;2.83;0.90;;;12.50;99.90;;;;;;5050826;28;20049;-48
2023/10/29 06:13:09;;;;;;;8.10;1.15;;;12.50;99.90;;;;;;5051032;28;20045;-50
2023/10/29 06:15:35;;;;;;;8.10;0.88;;;12.60;99.90;;;;;;5050897;28;20437;-47
2023/10/29 06:18:04;;;;;;;2.53;0.90;;;12.50;99.90;;;;;;5050802;28;20041;-45
2023/10/29 06:20:30;;;;;;;6.45;1.52;;;12.60;99.90;;;;;;5050732;28;20047;-47
2023/10/29 06:22:56;;;;;;;6.60;1.40;;;12.60;99.90;;;;;;5050844;28;20080;-50
2023/10/29 06:25:21;;;;;;;2.78;0.90;;;12.70;99.90;;;;;;5051099;28;20068;-51
2023/10/29 06:27:47;;;;;;;3.15;1.00;;;12.60;99.90;;;;;;5070693;28;20129;-51
2023/10/29 06:30:13;;;;;;;3.30;1.00;;;12.70;99.90;;;;;;5070755;28;20186;-49
2023/10/29 06:32:39;;;;;;;4.30;0.88;;;12.70;99.90;;;;;;5070991;28;20033;-48
2023/10/29 06:35:05;;;;;;;2.17;1.00;;;12.60;99.90;;;;;;5071028;28;20479;-50
2023/10/29 06:37:31;;;;;;;3.40;0.90;;;12.60;99.90;;;;;;5070950;28;20225;-48
2023/10/29 06:39:57;;;;;;;2.78;1.02;;;12.50;99.90;;;;;;5070756;28;20116;-49
2023/10/29 06:42:22;;;;;;;2.72;0.65;;;12.50;99.90;;;;;;5070739;28;20044;-47
2023/10/29 06:44:48;;;;;;;2.67;0.95;;;12.60;99.90;;;;;;5070750;28;20035;-47
2023/10/29 06:47:14;;;;;;;2.00;0.80;;;12.60;99.90;;;;;;5073022;28;20040;-46
2023/10/29 06:49:40;;;;;;;5.95;1.17;;;12.60;99.90;;;;;;5074280;28;20510;-45
2023/10/29 06:52:07;;;;;;;4.28;0.90;;;12.60;99.90;;;;;;5074456;28;20063;-46
2023/10/29 06:54:34;;;;;;;4.70;0.70;;;12.70;99.90;;;;;;5074378;28;20790;-47
2023/10/29 06:57:00;;;;;;;5.07;1.13;;;12.70;99.90;;;;;;5074248;28;20565;-46
2023/10/29 06:59:26;;;;;;;4.72;1.23;;;12.60;99.90;;;;;;5074069;28;20044;-49
2023/10/29 07:01:52;;;;;;;2.75;0.75;;;12.70;99.90;;;;;;5074209;28;20043;-50
2023/10/29 07:04:18;;;;;;;1.52;0.68;;;12.80;99.90;;;;;;5074015;28;20109;-46
2023/10/29 07:06:46;;;;;;;7.13;1.08;;;12.70;99.90;;;;;;5073842;28;20041;-48
2023/10/29 07:09:15;;;;;;;2.78;0.80;;;12.80;99.90;;;;;;5074079;28;20036;-47
2023/10/29 07:11:44;;;;;;;6.30;1.00;;;12.80;99.90;;;;;;5073607;28;20056;-46
2023/10/29 07:14:11;;;;;;;1.23;0.65;;;12.80;99.90;;;;;;5073972;28;20041;-45
2023/10/29 07:16:37;;;;;;;6.00;1.00;;;12.90;99.90;;;;;;5073893;28;20086;-45
2023/10/29 07:19:04;;;;;;;2.55;0.80;;;12.90;99.90;;;;;;5074307;28;20498;-46
2023/10/29 07:21:30;;;;;;;3.38;0.80;;;13.00;99.90;;;;;;5072831;28;20372;-45
2023/10/29 07:23:56;;;;;;;4.38;0.63;;;13.00;99.90;;;;;;5060688;28;20097;-47
2023/10/29 07:26:21;;;;;;;4.75;1.00;;;13.00;99.90;;;;;;5053442;28;20121;-47
2023/10/29 07:28:47;;;;;;;7.85;1.27;;;13.00;99.90;;;;;;5053535;28;20121;-48
2023/10/29 07:31:13;;;;;;;2.58;0.50;;;13.00;99.90;;;;;;5053436;28;20029;-47
2023/10/29 07:33:38;;;;;;;3.65;0.75;;;13.00;99.90;;;;;;5053581;28;20159;-46
2023/10/29 07:36:05;;;;;;;2.92;0.60;;;13.10;99.90;;;;;;5053231;28;20033;-46
2023/10/29 07:38:30;;;;;;;3.08;0.70;;;13.10;99.90;;;;;;5053374;28;20079;-46
2023/10/29 07:40:56;;;;;;;3.20;0.60;;;13.10;99.90;;;;;;5053403;28;20130;-46
2023/10/29 07:43:22;;;;;;;4.25;0.90;;;13.10;99.90;;;;;;5053110;28;20055;-48
2023/10/29 07:45:51;;;;;;;2.42;0.70;;;13.10;99.90;;;;;;5053157;28;20407;-46
2023/10/29 07:48:18;;;;;;;3.95;0.90;;;13.10;99.90;;;;;;5053080;28;20040;-48
2023/10/29 07:50:53;;;;;;;4.53;0.77;;;13.10;99.90;;;;;;5053239;28;20138;-49
2023/10/29 07:53:19;;;;;;;3.40;0.65;;;13.20;99.90;;;;;;5052851;28;20480;-48
2023/10/29 07:55:45;;;;;;;4.05;0.65;;;13.20;99.90;;;;;;5052883;28;20612;-44
2023/10/29 07:58:11;;;;;;;3.88;1.08;;;13.20;99.90;;;;;;5052727;28;20039;-46
2023/10/29 08:00:37;;;;;;;2.63;0.57;;;13.20;99.90;;;;;;5053136;28;20411;-47
2023/10/29 08:03:03;;;;;;;2.95;0.73;;;13.30;99.90;;;;;;5051593;28;20049;-46
2023/10/29 08:05:28;;;;;;;5.03;1.15;;;13.30;99.90;;;;;;5052718;28;20437;-45
2023/10/29 08:07:54;;;;;;;5.03;0.80;;;13.30;99.90;;;;;;5052988;28;20094;-46
2023/10/29 08:10:20;;;;;;;1.35;0.55;;;13.20;99.90;;;;;;5052389;28;20140;-44
2023/10/29 08:12:45;;;;;;;6.75;0.90;;;13.20;99.90;;;;;;5051450;28;20041;-45
2023/10/29 08:15:12;;;;;;;3.58;0.98;;;13.50;99.90;;;;;;5052668;28;20033;-45
2023/10/29 08:17:39;;;;;;;3.00;0.80;;;13.70;99.90;;;;;;5052631;28;20553;-47
2023/10/29 08:20:06;;;;;;;4.22;0.65;;;14.00;99.90;;;;;;5066034;28;20089;-43
2023/10/29 08:22:32;;;;;;;3.45;0.80;;;14.10;99.90;;;;;;5071697;28;20048;-48
2023/10/29 08:24:59;;;;;;;2.38;0.60;;;14.40;99.90;;;;;;5072251;28;20040;-50
2023/10/29 08:27:25;;;;;;;1.55;0.75;;;14.50;99.90;;;;;;5072483;28;20036;-47
2023/10/29 08:29:51;;;;;;;5.88;0.82;;;14.60;99.90;;;;;;5072428;28;20047;-47
2023/10/29 08:32:17;;;;;;;6.07;0.90;;;14.90;99.90;;;;;;5072246;28;20540;-49
2023/10/29 08:34:43;;;;;;;6.57;0.98;;;14.90;99.90;;;;;;5072124;28;20032;-46
2023/10/29 08:37:10;;;;;;;4.32;1.00;;;15.00;99.90;;;;;;5072036;28;20046;-47
2023/10/29 08:39:36;;;;;;;3.83;0.80;;;15.00;99.90;;;;;;5072011;28;20048;-46
2023/10/29 08:42:02;;;;;;;6.85;1.40;;;15.00;99.90;;;;;;5072105;28;20046;-46
2023/10/29 08:44:29;;;;;;;5.97;1.13;;;15.10;99.90;;;;;;5072024;28;20046;-45
2023/10/29 08:46:55;;;;;;;5.88;1.10;;;15.10;99.90;;;;;;5071112;28;20453;-45
2023/10/29 08:49:20;;;;;;;2.80;0.60;;;15.10;99.90;;;;;;5072235;28;20101;-46
2023/10/29 08:51:46;;;;;;;6.00;1.20;;;14.90;99.90;;;;;;5070756;28;20048;-45
2023/10/29 08:54:12;;;;;;;6.85;1.10;;;14.80;99.90;;;;;;5071735;28;20068;-47
2023/10/29 08:56:38;;;;;;;6.75;1.40;;;14.70;99.90;;;;;;5071954;28;20108;-48
2023/10/29 08:59:05;;;;;;;11.30;1.30;;;14.60;99.90;;;;;;5071935;28;20082;-47
2023/10/29 09:01:31;;;;;;;6.00;1.00;;;14.60;99.90;;;;;;5071672;28;20119;-46
2023/10/29 09:03:57;;;;;;;4.80;1.42;;;14.50;99.90;;;;;;5071835;28;20037;-49
2023/10/29 09:06:24;;;;;;;5.85;1.50;;;14.50;99.90;;;;;;5071618;28;20547;-44
2023/10/29 09:08:50;;;;;;;4.35;1.08;;;14.40;99.90;;;;;;5071153;28;20048;-46
2023/10/29 09:11:17;;;;;;;3.65;0.90;;;14.40;99.90;;;;;;5071286;28;20061;-46
2023/10/29 09:13:43;;;;;;;6.25;1.05;;;14.40;99.90;;;;;;5071802;28;20047;-45
2023/10/29 09:16:09;;;;;;;4.40;0.90;;;14.30;99.90;;;;;;5070679;28;20036;-44
2023/10/29 09:18:35;;;;;;;2.40;0.70;;;14.30;99.90;;;;;;5071264;28;20036;-46
2023/10/29 09:21:01;;;;;;;4.25;0.90;;;14.30;99.90;;;;;;5071629;28;20115;-47
2023/10/29 09:23:29;;;;;;;4.75;1.38;;;14.20;99.90;;;;;;5062035;28;20624;-46
2023/10/29 09:25:57;;;;;;;5.35;1.08;;;14.20;99.90;;;;;;5051366;28;20511;-49
2023/10/29 09:28:23;;;;;;;7.80;1.30;;;14.20;99.90;;;;;;5051527;28;20487;-48
2023/10/29 09:30:48;;;;;;;2.75;0.80;;;14.30;99.90;;;;;;5051359;28;20051;-46
2023/10/29 09:33:15;;;;;;;3.83;1.00;;;14.40;99.90;;;;;;5051243;28;20040;-47
2023/10/29 09:35:44;;;;;;;4.25;0.95;;;14.50;99.90;;;;;;5051361;28;20398;-48
2023/10/29 09:38:09;;;;;;;8.75;1.10;;;14.50;99.90;;;;;;5051139;28;20144;-45
2023/10/29 09:40:36;;;;;;;4.13;0.70;;;14.50;99.90;;;;;;5051521;28;20120;-47
2023/10/29 09:43:04;;;;;;;3.85;1.20;;;14.60;99.90;;;;;;5051364;28;20037;-47
2023/10/29 09:45:35;;;;;;;5.25;1.05;;;14.60;99.90;;;;;;5051324;28;20044;-48
2023/10/29 09:48:01;;;;;;;5.07;0.88;;;14.60;99.90;;;;;;5051072;28;20491;-45
2023/10/29 09:50:28;;;;;;;4.82;1.15;;;14.60;99.90;;;;;;5051052;28;20059;-47
2023/10/29 09:52:54;;;;;;;4.45;0.90;;;14.70;99.90;;;;;;5051324;28;20116;-48
2023/10/29 09:55:21;;;;;;;6.97;1.10;;;14.70;99.90;;;;;;5051174;28;20033;-45
2023/10/29 09:57:48;;;;;;;7.82;1.38;;;14.80;99.90;;;;;;5051195;28;20475;-45
2023/10/29 10:00:17;;;;;;;5.28;1.48;;;14.90;99.90;;;;;;5050970;28;20091;-44
2023/10/29 10:02:55;;;;;;;4.80;1.00;;;14.90;99.90;;;;;;5051053;28;20483;-46
2023/10/29 10:05:22;;;;;;;4.57;1.17;;;14.90;99.90;;;;;;5051234;28;20378;-50
2023/10/29 10:07:48;;;;;;;5.85;1.10;;;15.00;99.90;;;;;;5051375;28;20048;-46
2023/10/29 10:10:15;;;;;;;4.32;0.73;;;15.00;99.90;;;;;;5050805;28;20128;-47
2023/10/29 10:12:48;;;;;;;8.20;1.20;;;14.90;99.90;;;;;;5050978;28;20120;-48
2023/10/29 10:15:16;;;;;;;8.18;1.95;;;14.90;99.90;;;;;;5064847;28;20040;-44
2023/10/29 10:17:58;;;;;;;8.30;1.58;;;14.90;99.90;;;;;;5069704;28;20032;-47
2023/10/29 10:20:25;;;;;;;4.13;0.70;;;14.90;99.90;;;;;;5068660;28;20128;-47
2023/10/29 10:22:57;;;;;;;5.40;1.15;;;14.90;99.90;;;;;;5070313;28;20041;-46
2023/10/29 10:25:24;;;;;;;5.05;1.20;;;14.90;99.90;;;;;;5054737;28;20036;-47
2023/10/29 10:27:54;;;;;;;4.10;0.98;;;14.90;99.90;;;;;;5054559;28;20039;-46
2023/10/29 10:30:27;;;;;;;9.38;1.33;;;15.00;99.90;;;;;;5054725;28;20380;-50
2023/10/29 10:33:08;;;;;;;3.50;1.00;;;15.00;99.90;;;;;;5054595;28;20032;-49
2023/10/29 10:35:47;;;;;;;8.68;1.10;;;15.00;99.90;;;;;;5054672;28;20459;-49
2023/10/29 10:38:15;;;;;;;4.78;1.33;;;15.00;99.90;;;;;;5053433;28;20372;-47
2023/10/29 10:40:41;;;;;;;8.27;1.05;;;15.00;99.90;;;;;;5054422;28;20505;-47
2023/10/29 10:43:07;;;;;;;5.50;1.33;;;15.00;99.90;;;;;;5054377;28;20128;-45
2023/10/29 10:45:35;;;;;;;7.07;1.33;;;15.10;99.90;;;;;;5054762;28;20155;-46
2023/10/29 10:48:04;;;;;;;3.92;1.10;;;15.20;99.90;;;;;;5054661;28;20124;-45
2023/10/29 10:50:31;;;;;;;6.80;1.45;;;15.10;99.90;;;;;;5054186;28;20052;-44
2023/10/29 10:52:57;;;;;;;6.57;1.35;;;15.10;99.90;;;;;;5054105;28;20037;-45
2023/10/29 10:55:25;;;;;;;5.47;1.23;;;15.20;99.90;;;;;;5054105;28;20506;-44
2023/10/29 10:57:51;;;;;;;6.07;1.10;;;15.20;99.90;;;;;;5054108;28;20551;-46
2023/10/29 11:00:18;;;;;;;7.82;1.42;;;15.20;99.90;;;;;;5054068;28;20095;-46
2023/10/29 11:02:45;;;;;;;6.78;1.38;;;15.20;99.90;;;;;;5052914;28;20055;-44
2023/10/29 11:05:13;;;;;;;9.20;1.48;;;15.20;99.90;;;;;;5053874;28;20099;-45
2023/10/29 11:07:43;;;;;;;4.93;1.33;;;15.30;99.90;;;;;;5054148;28;20048;-47
2023/10/29 11:10:13;;;;;;;8.75;1.40;;;15.40;99.90;;;;;;5053701;28;20037;-47
2023/10/29 11:12:40;;;;;;;6.78;1.80;;;15.40;99.90;;;;;;5054001;28;20459;-45
2023/10/29 11:15:19;;;;;;;7.78;1.75;;;15.40;99.90;;;;;;5054120;28;20033;-49
2023/10/29 11:17:52;;;;;;;7.10;1.40;;;15.30;99.90;;;;;;5052909;28;20041;-47
2023/10/29 11:20:42;;;;;;;5.85;1.35;;;15.20;99.90;;;;;;5053674;28;20045;-45
2023/10/29 11:23:09;;;;;;;8.80;2.10;;;15.20;99.90;;;;;;5053660;28;20041;-48
2023/10/29 11:25:36;;;;;;;4.05;1.50;;;15.20;99.90;;;;;;5052363;28;20514;-50
2023/10/29 11:28:03;;;;;;;5.00;1.50;;;15.20;99.90;;;;;;5053422;28;20040;-47
2023/10/29 11:30:28;;;;;;;5.65;1.33;;;15.20;99.90;;;;;;5053069;28;20391;-46
2023/10/29 11:33:06;;;;;;;8.32;1.38;;;15.20;99.90;;;;;;5051634;28;20037;-49
2023/10/29 11:35:35;;;;;;;5.32;1.58;;;15.20;99.90;;;;;;5053348;28;20055;-46
2023/10/29 11:38:29;;;;;;;12.00;1.83;;;15.20;99.90;;;;;;5053211;28;20147;-46
2023/10/29 11:40:56;;;;;;;7.07;1.60;;;15.20;99.90;;;;;;5052283;28;20051;-47
2023/10/29 11:43:22;;;;;;;6.90;1.70;;;15.30;99.90;;;;;;5053314;28;20033;-46
2023/10/29 11:46:02;;;;;;;8.43;1.73;;;15.30;99.90;;;;;;5053098;28;20041;-48
2023/10/29 11:48:29;;;;;;;9.18;2.95;;;15.30;99.90;;;;;;5052939;28;20041;-47
2023/10/29 11:51:05;;;;;;;7.05;1.70;;;15.20;99.90;;;;;;5052974;28;20040;-47
2023/10/29 11:53:32;;;;;;;7.00;1.80;;;15.20;99.90;;;;;;5052838;28;20041;-45
2023/10/29 11:56:04;;;;;;;6.00;1.63;;;15.20;99.90;;;;;;5053167;28;20045;-46
2023/10/29 11:58:31;;;;;;;7.28;1.40;;;15.10;99.90;;;;;;5052747;28;20546;-46
2023/10/29 12:00:57;;;;;;;6.45;1.80;;;15.10;99.90;;;;;;5052908;28;20049;-45
2023/10/29 12:03:23;;;;;;;8.60;1.90;;;15.00;99.90;;;;;;5052750;28;20048;-46
2023/10/29 12:05:49;;;;;;;6.25;1.77;;;15.00;99.90;;;;;;5054204;28;20045;-46
2023/10/29 12:08:15;;;;;;;4.68;1.40;;;15.00;99.90;;;;;;5071726;28;20445;-44
2023/10/29 12:10:50;;;;;;;9.40;1.60;;;15.00;99.90;;;;;;5072147;28;20044;-44
2023/10/29 12:13:18;;;;;;;9.05;1.80;;;15.00;99.90;;;;;;5072507;28;20044;-45
2023/10/29 12:15:58;;;;;;;8.90;1.60;;;15.00;99.90;;;;;;5072482;28;20028;-49
2023/10/29 12:18:24;;;;;;;;;;;14.90;99.90;;;;;;5072968;28;20037;-45
2023/10/29 12:21:01;;;;;;;9.88;1.83;;;14.90;99.90;;;;;;5072548;28;19916;-50
2023/10/29 12:23:27;;;;;;;9.52;1.92;;;14.80;99.90;;;;;;5063134;28;20040;-46
2023/10/29 12:25:53;;;;;;;5.32;1.30;;;14.80;99.90;;;;;;5052347;28;20047;-47
2023/10/29 12:28:19;;;;;;;8.95;1.90;;;14.90;99.90;;;;;;5052403;28;20037;-48
2023/10/29 12:30:50;;;;;;;8.82;1.65;;;14.90;99.90;;;;;;5052325;28;20045;-45
2023/10/29 12:33:16;;;;;;;5.20;1.48;;;14.90;99.90;;;;;;5037556;28;20040;-47
2023/10/29 12:35:42;;;;;;;4.50;1.40;;;14.90;99.90;;;;;;5052501;28;20507;-45
2023/10/29 12:38:14;;;;;;;8.25;1.73;;;14.80;99.90;;;;;;5052243;28;20029;-46
2023/10/29 12:41:05;;;;;;;6.85;1.60;;;14.80;99.90;;;;;;5052323;28;20043;-45
2023/10/29 12:43:38;;;;;;;9.30;1.70;;;14.80;99.90;;;;;;5052553;28;20122;-47
2023/10/29 12:46:11;;;;;;;9.85;1.92;;;14.80;99.90;;;;;;5052184;28;20076;-45